sensor_id;sensor_type;location;lat;lon;timestamp;P1;durP1;ratioP1;P2;durP2;ratioP2
22164;SDS011;11248;52.512;13.520;2023-08-24T00:00:56;5.05;;;2.90;;
22164;SDS011;11248;52.512;13.520;2023-08-24T00:03:22;6.05;;;2.97;;
22164;SDS011;11248;52.512;13.520;2023-08-24T00:05:48;4.47;;;2.75;;
22164;SDS011;11248;52.512;13.520;2023-08-24T00:08:14;5.78;;;3.20;;
22164;SDS011;11248;52.512;13.520;2023-08-24T00:10:42;5.68;;;3.25;;
22164;SDS011;11248;52.512;13.520;2023-08-24T00:13:09;4.82;;;3.40;;
22164;SDS011;11248;52.512;13.520;2023-08-24T00:15:35;4.80;;;3.05;;
22164;SDS011;11248;52.512;13.520;2023-08-24T00:18:01;4.07;;;2.97;;
22164;SDS011;11248;52.512;13.520;2023-08-24T00:20:27;5.95;;;3.63;;
22164;SDS011;11248;52.512;13.520;2023-08-24T00:22:53;4.03;;;3.15;;
22164;SDS011;11248;52.512;13.520;2023-08-24T00:25:19;6.10;;;3.17;;
22164;SDS011;11248;52.512;13.520;2023-08-24T00:27:45;6.10;;;3.40;;
22164;SDS011;11248;52.512;13.520;2023-08-24T00:30:11;3.55;;;2.67;;
22164;SDS011;11248;52.512;13.520;2023-08-24T00:32:37;6.82;;;2.88;;
22164;SDS011;11248;52.512;13.520;2023-08-24T00:35:03;3.08;;;2.78;;
22164;SDS011;11248;52.512;13.520;2023-08-24T00:37:30;6.32;;;3.03;;
22164;SDS011;11248;52.512;13.520;2023-08-24T00:39:56;6.05;;;3.30;;
22164;SDS011;11248;52.512;13.520;2023-08-24T00:42:22;6.85;;;3.38;;
22164;SDS011;11248;52.512;13.520;2023-08-24T00:44:49;6.80;;;3.58;;
22164;SDS011;11248;52.512;13.520;2023-08-24T00:47:15;6.40;;;3.15;;
22164;SDS011;11248;52.512;13.520;2023-08-24T00:49:41;6.00;;;3.47;;
22164;SDS011;11248;52.512;13.520;2023-08-24T00:52:07;4.97;;;3.08;;
22164;SDS011;11248;52.512;13.520;2023-08-24T00:54:33;6.00;;;3.40;;
22164;SDS011;11248;52.512;13.520;2023-08-24T00:57:00;6.45;;;3.05;;
22164;SDS011;11248;52.512;13.520;2023-08-24T00:59:26;6.05;;;3.50;;
22164;SDS011;11248;52.512;13.520;2023-08-24T01:01:52;7.00;;;3.78;;
22164;SDS011;11248;52.512;13.520;2023-08-24T01:04:18;5.90;;;3.58;;
22164;SDS011;11248;52.512;13.520;2023-08-24T01:06:44;5.53;;;3.50;;
22164;SDS011;11248;52.512;13.520;2023-08-24T01:09:10;6.95;;;3.60;;
22164;SDS011;11248;52.512;13.520;2023-08-24T01:16:40;5.82;;;3.30;;
22164;SDS011;11248;52.512;13.520;2023-08-24T01:19:11;5.78;;;3.20;;
22164;SDS011;11248;52.512;13.520;2023-08-24T01:21:40;5.57;;;3.22;;
22164;SDS011;11248;52.512;13.520;2023-08-24T01:26:33;6.55;;;3.53;;
22164;SDS011;11248;52.512;13.520;2023-08-24T01:28:59;6.05;;;3.10;;
22164;SDS011;11248;52.512;13.520;2023-08-24T01:31:26;4.45;;;3.50;;
22164;SDS011;11248;52.512;13.520;2023-08-24T01:33:51;3.58;;;2.92;;
22164;SDS011;11248;52.512;13.520;2023-08-24T01:36:18;4.25;;;3.22;;
22164;SDS011;11248;52.512;13.520;2023-08-24T01:38:45;5.90;;;3.72;;
22164;SDS011;11248;52.512;13.520;2023-08-24T01:41:13;4.63;;;3.47;;
22164;SDS011;11248;52.512;13.520;2023-08-24T01:43:42;6.72;;;3.45;;
22164;SDS011;11248;52.512;13.520;2023-08-24T01:46:09;6.22;;;3.90;;
22164;SDS011;11248;52.512;13.520;2023-08-24T01:48:35;5.22;;;3.50;;
22164;SDS011;11248;52.512;13.520;2023-08-24T01:51:02;8.57;;;3.92;;
22164;SDS011;11248;52.512;13.520;2023-08-24T01:53:29;6.65;;;4.00;;
22164;SDS011;11248;52.512;13.520;2023-08-24T01:55:55;6.20;;;3.88;;
22164;SDS011;11248;52.512;13.520;2023-08-24T01:58:21;4.95;;;4.07;;
22164;SDS011;11248;52.512;13.520;2023-08-24T02:00:47;4.85;;;4.22;;
22164;SDS011;11248;52.512;13.520;2023-08-24T02:03:13;5.00;;;3.78;;
22164;SDS011;11248;52.512;13.520;2023-08-24T02:05:39;4.90;;;4.18;;
22164;SDS011;11248;52.512;13.520;2023-08-24T02:08:05;5.50;;;3.95;;
22164;SDS011;11248;52.512;13.520;2023-08-24T02:10:31;6.07;;;4.53;;
22164;SDS011;11248;52.512;13.520;2023-08-24T02:12:57;6.53;;;4.18;;
22164;SDS011;11248;52.512;13.520;2023-08-24T02:15:23;5.90;;;3.97;;
22164;SDS011;11248;52.512;13.520;2023-08-24T02:17:49;4.80;;;3.75;;
22164;SDS011;11248;52.512;13.520;2023-08-24T02:20:15;6.82;;;3.92;;
22164;SDS011;11248;52.512;13.520;2023-08-24T02:22:41;7.18;;;4.13;;
22164;SDS011;11248;52.512;13.520;2023-08-24T02:25:08;4.40;;;3.38;;
22164;SDS011;11248;52.512;13.520;2023-08-24T02:27:33;5.50;;;3.30;;
22164;SDS011;11248;52.512;13.520;2023-08-24T02:29:59;5.07;;;3.75;;
22164;SDS011;11248;52.512;13.520;2023-08-24T02:32:25;6.38;;;3.58;;
22164;SDS011;11248;52.512;13.520;2023-08-24T02:34:51;7.30;;;3.97;;
22164;SDS011;11248;52.512;13.520;2023-08-24T02:37:17;4.60;;;3.90;;
22164;SDS011;11248;52.512;13.520;2023-08-24T02:39:43;7.65;;;3.92;;
22164;SDS011;11248;52.512;13.520;2023-08-24T02:42:09;5.65;;;4.15;;
22164;SDS011;11248;52.512;13.520;2023-08-24T02:44:35;6.60;;;4.18;;
22164;SDS011;11248;52.512;13.520;2023-08-24T02:47:01;6.38;;;3.75;;
22164;SDS011;11248;52.512;13.520;2023-08-24T02:49:27;9.52;;;4.90;;
22164;SDS011;11248;52.512;13.520;2023-08-24T02:51:53;9.02;;;4.70;;
22164;SDS011;11248;52.512;13.520;2023-08-24T02:54:19;8.05;;;4.95;;
22164;SDS011;11248;52.512;13.520;2023-08-24T02:56:44;7.07;;;4.85;;
22164;SDS011;11248;52.512;13.520;2023-08-24T02:59:10;5.10;;;4.10;;
22164;SDS011;11248;52.512;13.520;2023-08-24T03:01:36;9.02;;;4.93;;
22164;SDS011;11248;52.512;13.520;2023-08-24T03:04:03;7.10;;;4.65;;
22164;SDS011;11248;52.512;13.520;2023-08-24T03:06:30;9.07;;;4.65;;
22164;SDS011;11248;52.512;13.520;2023-08-24T03:08:55;8.70;;;4.50;;
22164;SDS011;11248;52.512;13.520;2023-08-24T03:11:21;6.60;;;4.25;;
22164;SDS011;11248;52.512;13.520;2023-08-24T03:13:47;6.85;;;4.05;;
22164;SDS011;11248;52.512;13.520;2023-08-24T03:16:14;7.35;;;4.28;;
22164;SDS011;11248;52.512;13.520;2023-08-24T03:18:39;6.15;;;4.47;;
22164;SDS011;11248;52.512;13.520;2023-08-24T03:21:05;7.32;;;5.00;;
22164;SDS011;11248;52.512;13.520;2023-08-24T03:23:31;6.90;;;4.35;;
22164;SDS011;11248;52.512;13.520;2023-08-24T03:25:57;5.30;;;4.10;;
22164;SDS011;11248;52.512;13.520;2023-08-24T03:28:23;7.93;;;4.30;;
22164;SDS011;11248;52.512;13.520;2023-08-24T03:30:52;6.32;;;4.22;;
22164;SDS011;11248;52.512;13.520;2023-08-24T03:33:20;4.78;;;3.83;;
22164;SDS011;11248;52.512;13.520;2023-08-24T03:35:46;5.07;;;3.85;;
22164;SDS011;11248;52.512;13.520;2023-08-24T03:38:13;6.50;;;4.30;;
22164;SDS011;11248;52.512;13.520;2023-08-24T03:40:39;6.30;;;3.92;;
22164;SDS011;11248;52.512;13.520;2023-08-24T03:43:05;7.22;;;4.32;;
22164;SDS011;11248;52.512;13.520;2023-08-24T03:45:31;7.80;;;4.07;;
22164;SDS011;11248;52.512;13.520;2023-08-24T03:47:57;6.18;;;3.80;;
22164;SDS011;11248;52.512;13.520;2023-08-24T03:50:23;6.70;;;3.83;;
22164;SDS011;11248;52.512;13.520;2023-08-24T03:52:50;5.75;;;3.65;;
22164;SDS011;11248;52.512;13.520;2023-08-24T03:55:16;6.22;;;4.50;;
22164;SDS011;11248;52.512;13.520;2023-08-24T03:57:42;6.35;;;3.80;;
22164;SDS011;11248;52.512;13.520;2023-08-24T04:00:08;5.53;;;3.58;;
22164;SDS011;11248;52.512;13.520;2023-08-24T04:02:37;6.18;;;4.13;;
22164;SDS011;11248;52.512;13.520;2023-08-24T04:05:03;4.53;;;3.38;;
22164;SDS011;11248;52.512;13.520;2023-08-24T04:07:29;8.48;;;3.85;;
22164;SDS011;11248;52.512;13.520;2023-08-24T04:09:56;6.20;;;3.75;;
22164;SDS011;11248;52.512;13.520;2023-08-24T04:12:22;5.18;;;3.40;;
22164;SDS011;11248;52.512;13.520;2023-08-24T04:14:48;5.22;;;3.95;;
22164;SDS011;11248;52.512;13.520;2023-08-24T04:17:14;5.85;;;3.95;;
22164;SDS011;11248;52.512;13.520;2023-08-24T04:19:40;6.30;;;3.75;;
22164;SDS011;11248;52.512;13.520;2023-08-24T04:22:05;5.07;;;3.35;;
22164;SDS011;11248;52.512;13.520;2023-08-24T04:24:31;4.40;;;3.33;;
22164;SDS011;11248;52.512;13.520;2023-08-24T04:26:57;3.80;;;3.05;;
22164;SDS011;11248;52.512;13.520;2023-08-24T04:29:23;4.32;;;3.33;;
22164;SDS011;11248;52.512;13.520;2023-08-24T04:31:49;3.97;;;3.17;;
22164;SDS011;11248;52.512;13.520;2023-08-24T04:34:16;4.15;;;2.90;;
22164;SDS011;11248;52.512;13.520;2023-08-24T04:36:42;3.42;;;3.10;;
22164;SDS011;11248;52.512;13.520;2023-08-24T04:39:08;3.80;;;3.08;;
22164;SDS011;11248;52.512;13.520;2023-08-24T04:41:35;6.25;;;2.90;;
22164;SDS011;11248;52.512;13.520;2023-08-24T04:44:01;3.67;;;3.28;;
22164;SDS011;11248;52.512;13.520;2023-08-24T04:46:27;4.93;;;3.40;;
22164;SDS011;11248;52.512;13.520;2023-08-24T04:48:53;4.47;;;3.15;;
22164;SDS011;11248;52.512;13.520;2023-08-24T04:51:19;3.80;;;2.88;;
22164;SDS011;11248;52.512;13.520;2023-08-24T04:53:45;4.13;;;3.40;;
22164;SDS011;11248;52.512;13.520;2023-08-24T04:56:11;4.25;;;3.42;;
22164;SDS011;11248;52.512;13.520;2023-08-24T04:58:37;4.82;;;3.33;;
22164;SDS011;11248;52.512;13.520;2023-08-24T05:01:03;3.97;;;3.20;;
22164;SDS011;11248;52.512;13.520;2023-08-24T05:03:28;6.82;;;3.80;;
22164;SDS011;11248;52.512;13.520;2023-08-24T05:05:54;4.40;;;3.63;;
22164;SDS011;11248;52.512;13.520;2023-08-24T05:08:20;4.70;;;3.47;;
22164;SDS011;11248;52.512;13.520;2023-08-24T05:10:46;4.38;;;3.10;;
22164;SDS011;11248;52.512;13.520;2023-08-24T05:13:12;3.67;;;2.92;;
22164;SDS011;11248;52.512;13.520;2023-08-24T05:15:38;3.38;;;2.55;;
22164;SDS011;11248;52.512;13.520;2023-08-24T05:18:04;4.47;;;3.05;;
22164;SDS011;11248;52.512;13.520;2023-08-24T05:20:30;3.58;;;2.60;;
22164;SDS011;11248;52.512;13.520;2023-08-24T05:22:56;5.05;;;2.67;;
22164;SDS011;11248;52.512;13.520;2023-08-24T05:25:22;3.05;;;2.40;;
22164;SDS011;11248;52.512;13.520;2023-08-24T05:27:48;3.65;;;2.90;;
22164;SDS011;11248;52.512;13.520;2023-08-24T05:30:14;4.25;;;2.53;;
22164;SDS011;11248;52.512;13.520;2023-08-24T05:32:40;4.13;;;3.08;;
22164;SDS011;11248;52.512;13.520;2023-08-24T05:35:07;3.65;;;2.85;;
22164;SDS011;11248;52.512;13.520;2023-08-24T05:37:33;4.15;;;2.78;;
22164;SDS011;11248;52.512;13.520;2023-08-24T05:39:59;6.22;;;2.58;;
22164;SDS011;11248;52.512;13.520;2023-08-24T05:42:26;4.55;;;3.20;;
22164;SDS011;11248;52.512;13.520;2023-08-24T05:44:51;5.43;;;2.78;;
22164;SDS011;11248;52.512;13.520;2023-08-24T05:47:17;5.05;;;2.90;;
22164;SDS011;11248;52.512;13.520;2023-08-24T05:49:43;2.83;;;2.40;;
22164;SDS011;11248;52.512;13.520;2023-08-24T05:52:09;7.35;;;3.60;;
22164;SDS011;11248;52.512;13.520;2023-08-24T05:54:36;4.13;;;2.63;;
22164;SDS011;11248;52.512;13.520;2023-08-24T05:57:03;3.33;;;2.65;;
22164;SDS011;11248;52.512;13.520;2023-08-24T05:59:29;4.57;;;2.30;;
22164;SDS011;11248;52.512;13.520;2023-08-24T06:01:55;2.72;;;2.40;;
22164;SDS011;11248;52.512;13.520;2023-08-24T06:04:21;5.70;;;2.40;;
22164;SDS011;11248;52.512;13.520;2023-08-24T06:06:46;2.53;;;2.17;;
22164;SDS011;11248;52.512;13.520;2023-08-24T06:09:12;3.10;;;2.50;;
22164;SDS011;11248;52.512;13.520;2023-08-24T06:11:40;3.05;;;2.60;;
22164;SDS011;11248;52.512;13.520;2023-08-24T06:14:06;3.08;;;2.28;;
22164;SDS011;11248;52.512;13.520;2023-08-24T06:16:32;3.85;;;2.45;;
22164;SDS011;11248;52.512;13.520;2023-08-24T06:18:57;3.83;;;2.58;;
22164;SDS011;11248;52.512;13.520;2023-08-24T06:21:23;3.70;;;2.38;;
22164;SDS011;11248;52.512;13.520;2023-08-24T06:23:49;3.65;;;2.47;;
22164;SDS011;11248;52.512;13.520;2023-08-24T06:26:16;4.82;;;2.72;;
22164;SDS011;11248;52.512;13.520;2023-08-24T06:28:42;4.53;;;2.70;;
22164;SDS011;11248;52.512;13.520;2023-08-24T06:31:08;4.78;;;2.55;;
22164;SDS011;11248;52.512;13.520;2023-08-24T06:33:34;4.13;;;2.38;;
22164;SDS011;11248;52.512;13.520;2023-08-24T06:36:01;6.03;;;3.42;;
22164;SDS011;11248;52.512;13.520;2023-08-24T06:38:33;3.58;;;2.25;;
22164;SDS011;11248;52.512;13.520;2023-08-24T06:41:00;3.65;;;2.30;;
22164;SDS011;11248;52.512;13.520;2023-08-24T06:43:26;3.20;;;2.25;;
22164;SDS011;11248;52.512;13.520;2023-08-24T06:45:54;4.60;;;1.77;;
22164;SDS011;11248;52.512;13.520;2023-08-24T06:48:20;2.88;;;1.95;;
22164;SDS011;11248;52.512;13.520;2023-08-24T06:50:46;4.55;;;2.25;;
22164;SDS011;11248;52.512;13.520;2023-08-24T06:53:12;3.05;;;2.15;;
22164;SDS011;11248;52.512;13.520;2023-08-24T06:55:39;6.30;;;2.00;;
22164;SDS011;11248;52.512;13.520;2023-08-24T06:58:05;3.50;;;1.90;;
22164;SDS011;11248;52.512;13.520;2023-08-24T07:00:31;3.78;;;1.90;;
22164;SDS011;11248;52.512;13.520;2023-08-24T07:02:58;3.25;;;1.98;;
22164;SDS011;11248;52.512;13.520;2023-08-24T07:05:24;6.78;;;2.38;;
22164;SDS011;11248;52.512;13.520;2023-08-24T07:07:50;2.63;;;2.22;;
22164;SDS011;11248;52.512;13.520;2023-08-24T07:10:16;4.07;;;2.05;;
22164;SDS011;11248;52.512;13.520;2023-08-24T07:12:42;7.10;;;2.80;;
22164;SDS011;11248;52.512;13.520;2023-08-24T07:15:10;2.35;;;1.80;;
22164;SDS011;11248;52.512;13.520;2023-08-24T07:17:36;2.17;;;1.77;;
22164;SDS011;11248;52.512;13.520;2023-08-24T07:20:03;3.20;;;1.80;;
22164;SDS011;11248;52.512;13.520;2023-08-24T07:22:36;2.63;;;1.80;;
22164;SDS011;11248;52.512;13.520;2023-08-24T07:25:02;2.85;;;1.85;;
22164;SDS011;11248;52.512;13.520;2023-08-24T07:27:30;3.72;;;1.88;;
22164;SDS011;11248;52.512;13.520;2023-08-24T07:29:56;3.63;;;2.17;;
22164;SDS011;11248;52.512;13.520;2023-08-24T07:32:22;2.45;;;1.55;;
22164;SDS011;11248;52.512;13.520;2023-08-24T07:34:48;3.85;;;1.63;;
22164;SDS011;11248;52.512;13.520;2023-08-24T07:37:14;2.38;;;1.55;;
22164;SDS011;11248;52.512;13.520;2023-08-24T07:39:40;2.95;;;1.50;;
22164;SDS011;11248;52.512;13.520;2023-08-24T07:42:06;2.97;;;1.73;;
22164;SDS011;11248;52.512;13.520;2023-08-24T07:44:32;4.97;;;1.92;;
22164;SDS011;11248;52.512;13.520;2023-08-24T07:46:58;3.22;;;1.58;;
22164;SDS011;11248;52.512;13.520;2023-08-24T07:49:24;4.65;;;2.17;;
22164;SDS011;11248;52.512;13.520;2023-08-24T07:51:50;3.90;;;2.10;;
22164;SDS011;11248;52.512;13.520;2023-08-24T07:54:16;2.67;;;1.77;;
22164;SDS011;11248;52.512;13.520;2023-08-24T07:56:42;2.58;;;1.70;;
22164;SDS011;11248;52.512;13.520;2023-08-24T07:59:08;3.75;;;2.10;;
22164;SDS011;11248;52.512;13.520;2023-08-24T08:01:34;2.95;;;1.90;;
22164;SDS011;11248;52.512;13.520;2023-08-24T08:04:00;2.60;;;1.70;;
22164;SDS011;11248;52.512;13.520;2023-08-24T08:06:25;3.08;;;1.92;;
22164;SDS011;11248;52.512;13.520;2023-08-24T08:08:51;2.83;;;1.92;;
22164;SDS011;11248;52.512;13.520;2023-08-24T08:11:17;4.57;;;1.90;;
22164;SDS011;11248;52.512;13.520;2023-08-24T08:13:43;3.88;;;1.85;;
22164;SDS011;11248;52.512;13.520;2023-08-24T08:16:09;4.22;;;1.63;;
22164;SDS011;11248;52.512;13.520;2023-08-24T08:18:36;4.03;;;1.90;;
22164;SDS011;11248;52.512;13.520;2023-08-24T08:21:09;2.97;;;1.88;;
22164;SDS011;11248;52.512;13.520;2023-08-24T08:26:02;2.50;;;1.70;;
22164;SDS011;11248;52.512;13.520;2023-08-24T08:28:28;3.03;;;2.03;;
22164;SDS011;11248;52.512;13.520;2023-08-24T08:30:54;3.25;;;2.25;;
22164;SDS011;11248;52.512;13.520;2023-08-24T08:33:20;2.47;;;1.80;;
22164;SDS011;11248;52.512;13.520;2023-08-24T08:35:47;2.63;;;1.50;;
22164;SDS011;11248;52.512;13.520;2023-08-24T08:38:12;2.40;;;1.50;;
22164;SDS011;11248;52.512;13.520;2023-08-24T08:40:38;2.78;;;1.67;;
22164;SDS011;11248;52.512;13.520;2023-08-24T08:43:06;2.10;;;1.80;;
22164;SDS011;11248;52.512;13.520;2023-08-24T08:45:32;3.58;;;2.17;;
22164;SDS011;11248;52.512;13.520;2023-08-24T08:47:59;6.47;;;2.00;;
22164;SDS011;11248;52.512;13.520;2023-08-24T08:50:25;5.35;;;1.88;;
22164;SDS011;11248;52.512;13.520;2023-08-24T08:52:51;4.63;;;1.98;;
22164;SDS011;11248;52.512;13.520;2023-08-24T08:55:17;3.25;;;1.70;;
22164;SDS011;11248;52.512;13.520;2023-08-24T08:57:44;2.45;;;1.48;;
22164;SDS011;11248;52.512;13.520;2023-08-24T09:00:11;2.40;;;1.40;;
22164;SDS011;11248;52.512;13.520;2023-08-24T09:02:42;1.42;;;1.27;;
22164;SDS011;11248;52.512;13.520;2023-08-24T09:05:09;3.70;;;1.73;;
22164;SDS011;11248;52.512;13.520;2023-08-24T09:07:35;5.28;;;1.70;;
22164;SDS011;11248;52.512;13.520;2023-08-24T09:10:02;1.48;;;1.38;;
22164;SDS011;11248;52.512;13.520;2023-08-24T09:12:33;2.15;;;1.50;;
22164;SDS011;11248;52.512;13.520;2023-08-24T09:14:59;2.05;;;1.73;;
22164;SDS011;11248;52.512;13.520;2023-08-24T09:17:25;2.08;;;1.25;;
22164;SDS011;11248;52.512;13.520;2023-08-24T09:19:52;1.63;;;1.30;;
22164;SDS011;11248;52.512;13.520;2023-08-24T09:22:18;3.03;;;1.88;;
22164;SDS011;11248;52.512;13.520;2023-08-24T09:24:45;2.20;;;1.52;;
22164;SDS011;11248;52.512;13.520;2023-08-24T09:27:18;2.17;;;1.80;;
22164;SDS011;11248;52.512;13.520;2023-08-24T09:29:51;2.13;;;1.38;;
22164;SDS011;11248;52.512;13.520;2023-08-24T09:32:21;2.78;;;1.40;;
22164;SDS011;11248;52.512;13.520;2023-08-24T09:34:47;2.45;;;1.70;;
22164;SDS011;11248;52.512;13.520;2023-08-24T09:37:14;1.27;;;1.17;;
22164;SDS011;11248;52.512;13.520;2023-08-24T09:39:40;2.75;;;1.30;;
22164;SDS011;11248;52.512;13.520;2023-08-24T09:42:06;1.70;;;1.30;;
22164;SDS011;11248;52.512;13.520;2023-08-24T09:44:32;2.22;;;1.40;;
22164;SDS011;11248;52.512;13.520;2023-08-24T09:46:58;2.50;;;1.30;;
22164;SDS011;11248;52.512;13.520;2023-08-24T09:49:24;1.80;;;1.50;;
22164;SDS011;11248;52.512;13.520;2023-08-24T09:51:51;2.50;;;1.50;;
22164;SDS011;11248;52.512;13.520;2023-08-24T09:54:19;3.40;;;1.80;;
22164;SDS011;11248;52.512;13.520;2023-08-24T09:56:47;1.80;;;1.58;;
22164;SDS011;11248;52.512;13.520;2023-08-24T09:59:14;2.40;;;1.73;;
22164;SDS011;11248;52.512;13.520;2023-08-24T10:01:44;7.30;;;2.25;;
22164;SDS011;11248;52.512;13.520;2023-08-24T10:04:12;2.75;;;1.58;;
22164;SDS011;11248;52.512;13.520;2023-08-24T10:06:38;2.80;;;1.52;;
22164;SDS011;11248;52.512;13.520;2023-08-24T10:09:07;2.35;;;1.58;;
22164;SDS011;11248;52.512;13.520;2023-08-24T10:11:34;2.97;;;1.70;;
22164;SDS011;11248;52.512;13.520;2023-08-24T10:14:05;3.78;;;1.80;;
22164;SDS011;11248;52.512;13.520;2023-08-24T10:16:33;2.13;;;1.40;;
22164;SDS011;11248;52.512;13.520;2023-08-24T10:19:02;1.88;;;1.50;;
22164;SDS011;11248;52.512;13.520;2023-08-24T10:21:28;1.88;;;1.35;;
22164;SDS011;11248;52.512;13.520;2023-08-24T10:23:55;1.67;;;1.50;;
22164;SDS011;11248;52.512;13.520;2023-08-24T10:26:25;2.13;;;1.42;;
22164;SDS011;11248;52.512;13.520;2023-08-24T10:28:51;1.80;;;1.25;;
22164;SDS011;11248;52.512;13.520;2023-08-24T10:31:18;2.25;;;1.20;;
22164;SDS011;11248;52.512;13.520;2023-08-24T10:33:45;3.53;;;1.60;;
22164;SDS011;11248;52.512;13.520;2023-08-24T10:36:14;1.83;;;1.25;;
22164;SDS011;11248;52.512;13.520;2023-08-24T10:38:41;6.38;;;1.27;;
22164;SDS011;11248;52.512;13.520;2023-08-24T10:41:07;3.13;;;1.55;;
22164;SDS011;11248;52.512;13.520;2023-08-24T10:43:34;3.13;;;1.55;;
22164;SDS011;11248;52.512;13.520;2023-08-24T10:46:01;4.53;;;1.38;;
22164;SDS011;11248;52.512;13.520;2023-08-24T10:48:29;3.50;;;1.40;;
22164;SDS011;11248;52.512;13.520;2023-08-24T10:53:45;3.28;;;1.60;;
22164;SDS011;11248;52.512;13.520;2023-08-24T10:56:14;4.68;;;1.60;;
22164;SDS011;11248;52.512;13.520;2023-08-24T10:58:41;3.42;;;1.73;;
22164;SDS011;11248;52.512;13.520;2023-08-24T11:01:07;1.77;;;1.15;;
22164;SDS011;11248;52.512;13.520;2023-08-24T11:03:39;1.95;;;1.42;;
22164;SDS011;11248;52.512;13.520;2023-08-24T11:06:23;2.17;;;1.20;;
22164;SDS011;11248;52.512;13.520;2023-08-24T11:09:05;1.88;;;1.25;;
22164;SDS011;11248;52.512;13.520;2023-08-24T11:11:31;5.45;;;1.80;;
22164;SDS011;11248;52.512;13.520;2023-08-24T11:14:31;2.97;;;1.58;;
22164;SDS011;11248;52.512;13.520;2023-08-24T11:16:57;2.63;;;1.77;;
22164;SDS011;11248;52.512;13.520;2023-08-24T11:19:23;2.78;;;1.48;;
22164;SDS011;11248;52.512;13.520;2023-08-24T11:21:50;3.80;;;1.50;;
22164;SDS011;11248;52.512;13.520;2023-08-24T11:24:16;1.60;;;1.40;;
22164;SDS011;11248;52.512;13.520;2023-08-24T11:26:46;4.38;;;1.70;;
22164;SDS011;11248;52.512;13.520;2023-08-24T11:29:12;2.38;;;1.33;;
22164;SDS011;11248;52.512;13.520;2023-08-24T11:31:38;1.95;;;1.70;;
22164;SDS011;11248;52.512;13.520;2023-08-24T11:34:04;5.15;;;2.08;;
22164;SDS011;11248;52.512;13.520;2023-08-24T11:36:32;2.72;;;1.75;;
22164;SDS011;11248;52.512;13.520;2023-08-24T11:39:06;3.58;;;1.67;;
22164;SDS011;11248;52.512;13.520;2023-08-24T11:41:32;4.05;;;1.83;;
22164;SDS011;11248;52.512;13.520;2023-08-24T11:43:59;3.67;;;1.90;;
22164;SDS011;11248;52.512;13.520;2023-08-24T11:46:27;1.63;;;1.40;;
22164;SDS011;11248;52.512;13.520;2023-08-24T11:48:53;1.63;;;1.52;;
22164;SDS011;11248;52.512;13.520;2023-08-24T11:51:19;3.50;;;1.88;;
22164;SDS011;11248;52.512;13.520;2023-08-24T11:53:45;3.47;;;2.13;;
22164;SDS011;11248;52.512;13.520;2023-08-24T11:56:12;5.20;;;2.05;;
22164;SDS011;11248;52.512;13.520;2023-08-24T11:58:38;3.45;;;1.90;;
22164;SDS011;11248;52.512;13.520;2023-08-24T12:01:05;3.30;;;1.83;;
22164;SDS011;11248;52.512;13.520;2023-08-24T12:03:31;2.67;;;1.92;;
22164;SDS011;11248;52.512;13.520;2023-08-24T12:06:00;2.35;;;1.77;;
22164;SDS011;11248;52.512;13.520;2023-08-24T12:08:28;2.92;;;1.90;;
22164;SDS011;11248;52.512;13.520;2023-08-24T12:10:54;2.25;;;1.55;;
22164;SDS011;11248;52.512;13.520;2023-08-24T12:13:20;2.85;;;1.63;;
22164;SDS011;11248;52.512;13.520;2023-08-24T12:15:46;3.17;;;2.00;;
22164;SDS011;11248;52.512;13.520;2023-08-24T12:18:15;2.67;;;1.52;;
22164;SDS011;11248;52.512;13.520;2023-08-24T12:20:41;4.88;;;2.08;;
22164;SDS011;11248;52.512;13.520;2023-08-24T12:23:07;2.42;;;1.60;;
22164;SDS011;11248;52.512;13.520;2023-08-24T12:25:37;2.35;;;1.92;;
22164;SDS011;11248;52.512;13.520;2023-08-24T12:28:13;1.83;;;1.58;;
22164;SDS011;11248;52.512;13.520;2023-08-24T12:30:43;1.85;;;1.40;;
22164;SDS011;11248;52.512;13.520;2023-08-24T12:33:09;2.33;;;1.50;;
22164;SDS011;11248;52.512;13.520;2023-08-24T12:35:46;4.55;;;1.80;;
22164;SDS011;11248;52.512;13.520;2023-08-24T12:38:12;2.05;;;1.58;;
22164;SDS011;11248;52.512;13.520;2023-08-24T12:40:37;2.50;;;1.60;;
22164;SDS011;11248;52.512;13.520;2023-08-24T12:43:03;2.67;;;1.70;;
22164;SDS011;11248;52.512;13.520;2023-08-24T12:45:29;3.70;;;2.05;;
22164;SDS011;11248;52.512;13.520;2023-08-24T12:47:55;4.22;;;2.20;;
22164;SDS011;11248;52.512;13.520;2023-08-24T12:50:21;2.13;;;1.60;;
22164;SDS011;11248;52.512;13.520;2023-08-24T12:52:47;3.03;;;2.10;;
22164;SDS011;11248;52.512;13.520;2023-08-24T12:55:13;3.78;;;2.03;;
22164;SDS011;11248;52.512;13.520;2023-08-24T12:57:39;3.03;;;1.80;;
22164;SDS011;11248;52.512;13.520;2023-08-24T13:00:05;6.40;;;1.73;;
22164;SDS011;11248;52.512;13.520;2023-08-24T13:02:33;1.98;;;1.65;;
22164;SDS011;11248;52.512;13.520;2023-08-24T13:04:59;3.63;;;1.80;;
22164;SDS011;11248;52.512;13.520;2023-08-24T13:07:28;2.95;;;1.73;;
22164;SDS011;11248;52.512;13.520;2023-08-24T13:09:54;2.65;;;1.95;;
22164;SDS011;11248;52.512;13.520;2023-08-24T13:12:20;5.45;;;1.70;;
22164;SDS011;11248;52.512;13.520;2023-08-24T13:14:46;4.22;;;2.08;;
22164;SDS011;11248;52.512;13.520;2023-08-24T13:17:12;6.65;;;2.15;;
22164;SDS011;11248;52.512;13.520;2023-08-24T13:19:38;4.03;;;2.10;;
22164;SDS011;11248;52.512;13.520;2023-08-24T13:22:04;1.95;;;1.63;;
22164;SDS011;11248;52.512;13.520;2023-08-24T13:24:30;2.70;;;1.80;;
22164;SDS011;11248;52.512;13.520;2023-08-24T13:26:56;3.45;;;1.48;;
22164;SDS011;11248;52.512;13.520;2023-08-24T13:29:22;3.15;;;1.50;;
22164;SDS011;11248;52.512;13.520;2023-08-24T13:31:48;2.65;;;1.70;;
22164;SDS011;11248;52.512;13.520;2023-08-24T13:34:13;2.72;;;1.85;;
22164;SDS011;11248;52.512;13.520;2023-08-24T13:36:39;2.13;;;1.70;;
22164;SDS011;11248;52.512;13.520;2023-08-24T13:39:05;3.00;;;1.67;;
22164;SDS011;11248;52.512;13.520;2023-08-24T13:41:31;2.15;;;1.40;;
22164;SDS011;11248;52.512;13.520;2023-08-24T13:43:57;3.92;;;1.88;;
22164;SDS011;11248;52.512;13.520;2023-08-24T13:46:23;2.42;;;1.90;;
22164;SDS011;11248;52.512;13.520;2023-08-24T13:48:49;3.97;;;1.88;;
22164;SDS011;11248;52.512;13.520;2023-08-24T13:51:15;2.33;;;1.80;;
22164;SDS011;11248;52.512;13.520;2023-08-24T13:53:41;1.73;;;1.60;;
22164;SDS011;11248;52.512;13.520;2023-08-24T13:56:07;5.40;;;1.90;;
22164;SDS011;11248;52.512;13.520;2023-08-24T13:58:33;2.53;;;1.58;;
22164;SDS011;11248;52.512;13.520;2023-08-24T14:00:59;2.25;;;1.77;;
22164;SDS011;11248;52.512;13.520;2023-08-24T14:03:27;2.92;;;1.58;;
22164;SDS011;11248;52.512;13.520;2023-08-24T14:05:56;2.33;;;1.80;;
22164;SDS011;11248;52.512;13.520;2023-08-24T14:08:22;3.33;;;1.70;;
22164;SDS011;11248;52.512;13.520;2023-08-24T14:10:48;2.70;;;1.70;;
22164;SDS011;11248;52.512;13.520;2023-08-24T14:13:15;2.80;;;1.58;;
22164;SDS011;11248;52.512;13.520;2023-08-24T14:15:41;2.47;;;1.45;;
22164;SDS011;11248;52.512;13.520;2023-08-24T14:18:06;3.95;;;1.75;;
22164;SDS011;11248;52.512;13.520;2023-08-24T14:20:33;2.65;;;1.77;;
22164;SDS011;11248;52.512;13.520;2023-08-24T14:22:59;2.88;;;1.80;;
22164;SDS011;11248;52.512;13.520;2023-08-24T14:25:26;1.80;;;1.60;;
22164;SDS011;11248;52.512;13.520;2023-08-24T14:27:52;3.88;;;1.70;;
22164;SDS011;11248;52.512;13.520;2023-08-24T14:30:18;3.22;;;1.58;;
22164;SDS011;11248;52.512;13.520;2023-08-24T14:32:44;4.60;;;1.52;;
22164;SDS011;11248;52.512;13.520;2023-08-24T14:35:10;3.15;;;1.65;;
22164;SDS011;11248;52.512;13.520;2023-08-24T14:37:36;1.75;;;1.58;;
22164;SDS011;11248;52.512;13.520;2023-08-24T14:40:04;2.47;;;1.88;;
22164;SDS011;11248;52.512;13.520;2023-08-24T14:42:30;2.63;;;1.70;;